Kevin, Montana
Current Conditions -  °F | °C
As of 7:56 AM on Tuesday 21 Oct 2014 (Local Time) from KCTB Reporting Station
Overcast Overcast  
Wind Chill: 56°   Ceiling: 9500
Heat Index: 56°   Visibility: 10mi
Dew Point: 36°   Wind: 13mph
Humidity: 47%   Direction: 300°WNW
Pressure: 29.65"   Gusts: NA
Location:  48.75°N, 111.97°W
Report Text: KCTB 211356Z AUTO 30011KT 10SM OVC095 13/02 A2965 RMK AO2 SLP025 T01330022
Loading
Personal Weather Stations






























Interactive Weather Map
Tropical Storm Tracking
New forecast layout! Learn more

10-Day Weather Forecast

Advertisements
Track Severe Weather on mobile